Time;durP1;ratioP1;P1;durP2;ratioP2;P2;SDS_P1;SDS_P2;PMS_P1;PMS_P2;Temp;Humidity;BMP_temperature;BMP_pressure;BME280_temperature;BME280_humidity;BME280_pressure;Samples;Min_cycle;Max_cycle;Signal;HPM_P1;HPM_P2
2022/01/05 00:00:23;;;;;;;7.35;3.28;;;;;;;6.70;100.00;98858.78;4421777;32;20090;-70
2022/01/05 00:02:50;;;;;;;6.32;3.00;;;;;;;6.89;100.00;98867.09;4421913;32;20483;-70
2022/01/05 00:05:18;;;;;;;4.37;2.95;;;;;;;6.86;100.00;98856.72;4421768;31;20161;-71
2022/01/05 00:07:45;;;;;;;5.90;2.97;;;;;;;7.02;100.00;98858.09;4421850;31;20081;-70
2022/01/05 00:10:12;;;;;;;4.37;2.78;;;;;;;7.07;100.00;98861.50;4421790;32;20145;-70
2022/01/05 00:12:39;;;;;;;4.93;3.00;;;;;;;7.18;100.00;98859.50;4421677;32;20094;-70
2022/01/05 00:15:07;;;;;;;7.20;3.10;;;;;;;7.15;100.00;98859.56;4421882;31;20357;-70
2022/01/05 00:17:35;;;;;;;8.95;4.12;;;;;;;7.08;100.00;98860.59;4421446;32;20123;-70
2022/01/05 00:20:03;;;;;;;10.88;4.18;;;;;;;7.19;100.00;98855.97;4421666;31;20116;-70
2022/01/05 00:22:31;;;;;;;9.88;5.03;;;;;;;7.20;100.00;98851.59;4421715;32;20467;-70
2022/01/05 00:24:58;;;;;;;7.95;4.62;;;;;;;7.19;100.00;98839.41;4421631;31;20097;-70
2022/01/05 00:27:25;;;;;;;6.95;4.57;;;;;;;7.25;100.00;98843.66;4421548;32;20147;-70
2022/01/05 00:29:52;;;;;;;7.20;4.28;;;;;;;7.30;100.00;98841.75;4421654;32;20401;-70
2022/01/05 00:32:20;;;;;;;7.03;4.65;;;;;;;7.33;100.00;98836.47;4421582;31;20430;-70
2022/01/05 00:34:47;;;;;;;11.07;4.50;;;;;;;7.32;100.00;98829.50;4421445;31;20558;-70
2022/01/05 00:37:14;;;;;;;8.02;5.47;;;;;;;7.23;100.00;98829.72;4421444;31;20085;-70
2022/01/05 00:39:41;;;;;;;8.25;4.80;;;;;;;7.22;100.00;98820.13;4421515;32;20180;-70
2022/01/05 00:42:08;;;;;;;10.00;5.12;;;;;;;7.19;100.00;98828.91;4421610;32;20118;-70
2022/01/05 00:44:35;;;;;;;8.88;5.35;;;;;;;7.25;100.00;98827.94;4421391;31;20488;-70
2022/01/05 00:47:03;;;;;;;10.70;4.95;;;;;;;7.11;100.00;98825.63;4421489;32;20152;-70
2022/01/05 00:49:30;;;;;;;8.30;4.47;;;;;;;7.02;100.00;98836.28;4421420;31;20086;-70
2022/01/05 00:51:57;;;;;;;9.38;4.62;;;;;;;7.08;100.00;98841.41;4421355;31;20093;-70
2022/01/05 00:54:25;;;;;;;8.57;4.78;;;;;;;7.05;100.00;98841.47;4421218;32;20543;-70
2022/01/05 00:56:52;;;;;;;8.85;4.80;;;;;;;6.97;100.00;98849.50;4421275;32;20081;-70
2022/01/05 00:59:19;;;;;;;9.00;4.43;;;;;;;6.91;100.00;98842.63;4421404;31;20089;-70
2022/01/05 01:01:47;;;;;;;10.32;4.60;;;;;;;6.89;100.00;98841.81;4421206;32;20090;-70
2022/01/05 01:04:14;;;;;;;8.25;4.53;;;;;;;6.82;100.00;98844.56;4421166;31;20105;-70
2022/01/05 01:06:41;;;;;;;12.25;4.40;;;;;;;6.83;100.00;98846.31;4421301;31;21129;-70
2022/01/05 01:09:09;;;;;;;6.32;3.87;;;;;;;6.89;100.00;98843.53;4421257;31;20114;-70
2022/01/05 01:11:36;;;;;;;7.85;4.40;;;;;;;6.90;100.00;98846.16;4421300;31;20093;-70
2022/01/05 01:14:03;;;;;;;10.70;4.35;;;;;;;7.02;100.00;98837.16;4421072;32;20101;-70
2022/01/05 01:16:30;;;;;;;6.37;3.53;;;;;;;7.06;100.00;98835.31;4420970;32;20081;-70
2022/01/05 01:18:57;;;;;;;5.97;3.70;;;;;;;7.01;100.00;98835.44;4421052;32;20093;-70
2022/01/05 01:21:25;;;;;;;6.40;3.42;;;;;;;7.05;100.00;98833.59;4421011;32;20475;-70
2022/01/05 01:23:55;;;;;;;6.80;3.70;;;;;;;7.01;100.00;98831.97;4421051;31;20261;-70
2022/01/05 01:26:25;;;;;;;9.73;3.87;;;;;;;7.02;100.00;98824.06;4421255;32;20092;-70
2022/01/05 01:28:53;;;;;;;9.85;3.62;;;;;;;7.03;100.00;98825.81;4420459;32;20157;-70
2022/01/05 01:31:20;;;;;;;5.87;3.20;;;;;;;6.96;100.00;98824.19;4421001;32;20124;-70
2022/01/05 01:33:47;;;;;;;10.80;3.40;;;;;;;6.94;100.00;98812.91;4420845;32;20085;-70
2022/01/05 01:36:15;;;;;;;6.43;3.47;;;;;;;6.85;100.00;98816.56;4420933;32;20537;-70
2022/01/05 01:38:43;;;;;;;6.20;3.67;;;;;;;6.84;100.00;98814.84;4421139;32;20807;-70
2022/01/05 01:41:10;;;;;;;6.28;3.60;;;;;;;6.80;100.00;98813.19;4420860;32;20460;-70
2022/01/05 01:43:38;;;;;;;4.22;3.05;;;;;;;7.01;100.00;98819.72;4420941;31;20101;-70
2022/01/05 01:46:08;;;;;;;6.00;3.60;;;;;;;7.04;100.00;98813.56;4420839;32;20115;-70
2022/01/05 01:48:36;;;;;;;5.03;3.70;;;;;;;7.04;100.00;98813.56;4420826;31;20094;-70
2022/01/05 01:51:03;;;;;;;6.97;2.97;;;;;;;6.97;100.00;98817.22;4420711;32;20445;-70
2022/01/05 01:53:30;;;;;;;4.28;3.12;;;;;;;6.91;100.00;98812.97;4421032;32;20109;-70
2022/01/05 01:56:00;;;;;;;5.07;3.35;;;;;;;6.93;100.00;98811.19;4420774;31;20077;-71
2022/01/05 01:58:32;;;;;;;3.70;3.00;;;;;;;6.85;100.00;98808.72;4420713;32;20127;-70
2022/01/05 02:01:00;;;;;;;7.12;3.70;;;;;;;6.85;100.00;98813.09;4420711;32;20089;-70
2022/01/05 02:03:28;;;;;;;8.18;3.92;;;;;;;6.86;100.00;98813.06;4420641;32;20193;-70
2022/01/05 02:05:56;;;;;;;6.47;4.00;;;;;;;6.69;100.00;98813.44;4420735;31;20154;-71
2022/01/05 02:08:23;;;;;;;8.55;3.15;;;;;;;6.56;100.00;98818.94;4420605;32;20085;-70
2022/01/05 02:10:51;;;;;;;5.15;3.45;;;;;;;6.59;100.00;98814.53;4420731;32;20512;-70
2022/01/05 02:13:19;;;;;;;6.32;3.50;;;;;;;6.36;100.00;98824.56;4420713;31;20105;-70
2022/01/05 02:15:46;;;;;;;9.18;3.72;;;;;;;6.20;100.00;98822.28;4420638;32;20153;-70
2022/01/05 02:21:01;;;;;;;6.37;3.95;;;;;;;5.97;100.00;98821.84;4420555;31;20173;-70
2022/01/05 02:23:29;;;;;;;8.45;3.87;;;;;;;5.94;100.00;98807.09;4420560;32;20384;-70
2022/01/05 02:25:56;;;;;;;5.97;3.85;;;;;;;5.94;100.00;98806.22;4420579;32;20469;-70
2022/01/05 02:28:23;;;;;;;6.95;3.80;;;;;;;5.89;100.00;98798.41;4420377;32;20509;-70
2022/01/05 02:30:52;;;;;;;6.07;3.35;;;;;;;5.94;100.00;98804.47;4420344;32;20193;-71
2022/01/05 02:33:20;;;;;;;5.43;3.40;;;;;;;5.90;100.00;98800.16;4420391;31;20511;-70
2022/01/05 02:35:48;;;;;;;6.03;3.78;;;;;;;5.83;100.00;98798.56;4420515;32;20387;-71
2022/01/05 02:38:18;;;;;;;6.22;3.83;;;;;;;5.85;100.00;98790.66;4420295;32;20452;-71
2022/01/05 02:40:45;;;;;;;5.93;3.75;;;;;;;5.85;100.00;98793.28;4419123;32;20444;-70
2022/01/05 02:43:12;;;;;;;5.57;3.53;;;;;;;5.74;100.00;98783.88;4420330;32;20136;-70
2022/01/05 02:45:39;;;;;;;8.60;3.87;;;;;;;5.72;100.00;98776.94;4420381;32;20151;-71
2022/01/05 02:48:07;;;;;;;4.57;2.97;;;;;;;5.77;100.00;98779.50;4420187;32;20673;-70
2022/01/05 02:50:34;;;;;;;4.37;3.50;;;;;;;5.92;100.00;98781.81;4420183;31;20124;-71
2022/01/05 02:53:02;;;;;;;4.30;3.33;;;;;;;5.92;100.00;98780.09;4420112;32;20117;-70
2022/01/05 02:55:29;;;;;;;7.65;3.80;;;;;;;5.90;100.00;98779.25;4420119;31;20116;-70
2022/01/05 02:57:56;;;;;;;4.62;3.58;;;;;;;5.77;100.00;98777.75;4420123;31;20451;-71
2022/01/05 03:00:24;;;;;;;5.95;3.37;;;;;;;5.77;100.00;98787.34;4420025;31;20568;-70
2022/01/05 03:02:51;;;;;;;6.28;3.90;;;;;;;5.79;100.00;98782.94;4420071;31;20535;-71
2022/01/05 03:05:19;;;;;;;5.25;3.35;;;;;;;5.84;100.00;98788.97;4420429;31;20460;-71
2022/01/05 03:07:47;;;;;;;6.05;3.40;;;;;;;5.79;100.00;98775.09;4420051;32;20468;-70
2022/01/05 03:10:14;;;;;;;4.40;3.12;;;;;;;5.96;100.00;98778.28;4419891;32;20476;-70
2022/01/05 03:12:42;;;;;;;3.72;2.60;;;;;;;5.93;100.00;98781.81;4419879;32;20128;-71
2022/01/05 03:15:10;;;;;;;11.02;3.25;;;;;;;5.96;100.00;98781.75;4419856;32;20115;-70
2022/01/05 03:17:38;;;;;;;4.45;2.87;;;;;;;5.96;100.00;98779.16;4419860;32;20447;-70
2022/01/05 03:20:06;;;;;;;5.10;2.87;;;;;;;6.09;100.00;98778.94;4419914;31;20101;-70
2022/01/05 03:22:34;;;;;;;4.45;3.00;;;;;;;6.08;100.00;98780.69;4419710;32;20097;-70
2022/01/05 03:25:02;;;;;;;4.05;2.83;;;;;;;6.07;100.00;98783.31;4419943;31;20157;-70
2022/01/05 03:27:29;;;;;;;6.43;3.03;;;;;;;6.02;100.00;98782.56;4419856;31;20512;-71
2022/01/05 03:29:56;;;;;;;4.18;3.00;;;;;;;5.95;100.00;98781.81;4419694;31;20212;-71
2022/01/05 03:32:26;;;;;;;4.45;2.90;;;;;;;6.00;100.00;98777.34;4419947;32;20204;-70
2022/01/05 03:34:53;;;;;;;2.65;2.42;;;;;;;6.15;100.00;98782.28;4419777;31;20082;-70
2022/01/05 03:37:20;;;;;;;4.35;2.90;;;;;;;6.33;100.00;98778.44;4419631;32;20485;-70
2022/01/05 03:39:48;;;;;;;5.18;2.90;;;;;;;6.47;100.00;98772.94;4419666;32;20109;-71
2022/01/05 03:42:15;;;;;;;4.72;2.95;;;;;;;6.29;100.00;98770.66;4419639;32;20448;-70
2022/01/05 03:44:42;;;;;;;6.80;3.17;;;;;;;6.25;100.00;98772.47;4419524;31;20094;-71
2022/01/05 03:47:09;;;;;;;4.18;2.60;;;;;;;6.14;100.00;98780.53;4419609;31;20101;-70
2022/01/05 03:49:36;;;;;;;3.10;2.58;;;;;;;6.18;100.00;98776.09;4419602;32;20128;-71
2022/01/05 03:52:05;;;;;;;4.00;2.90;;;;;;;6.22;100.00;98775.19;4420374;32;20124;-71
2022/01/05 03:54:32;;;;;;;6.50;3.42;;;;;;;6.23;100.00;98767.28;4421847;32;20116;-71
2022/01/05 03:56:59;;;;;;;4.68;2.83;;;;;;;6.21;100.00;98769.06;4421991;31;20879;-70
2022/01/05 03:59:26;;;;;;;4.72;2.90;;;;;;;6.17;100.00;98767.41;4421868;31;20109;-70
2022/01/05 04:01:53;;;;;;;7.70;3.15;;;;;;;6.20;100.00;98751.66;4421764;31;20123;-71
2022/01/05 04:04:22;;;;;;;3.37;2.80;;;;;;;6.07;100.00;98750.19;4421760;32;20141;-71
2022/01/05 04:06:49;;;;;;;6.18;2.90;;;;;;;6.06;100.00;98745.84;4422053;31;20096;-70
2022/01/05 04:09:16;;;;;;;3.83;2.87;;;;;;;6.04;100.00;98738.91;4421703;32;20129;-71
2022/01/05 04:11:43;;;;;;;5.22;3.05;;;;;;;6.19;100.00;98752.56;4421961;32;20166;-70
2022/01/05 04:14:12;;;;;;;4.07;3.00;;;;;;;6.10;100.00;98744.03;4421704;31;20085;-71
2022/01/05 04:16:39;;;;;;;3.87;3.17;;;;;;;6.08;100.00;98748.41;4421641;31;20123;-71
2022/01/05 04:19:06;;;;;;;4.00;3.05;;;;;;;5.98;100.00;98753.00;4421734;32;20397;-70
2022/01/05 04:21:33;;;;;;;5.18;3.30;;;;;;;5.99;100.00;98755.56;4421646;31;20464;-71
2022/01/05 04:24:01;;;;;;;4.20;2.97;;;;;;;5.98;100.00;98748.63;4421619;32;20145;-70
2022/01/05 04:26:29;;;;;;;4.28;2.75;;;;;;;6.01;100.00;98745.09;4421784;32;20168;-70
2022/01/05 04:28:56;;;;;;;3.72;2.47;;;;;;;5.98;100.00;98739.91;4421655;32;20097;-70
2022/01/05 04:31:23;;;;;;;5.87;2.78;;;;;;;5.94;100.00;98749.56;4421518;32;20169;-71
2022/01/05 04:33:50;;;;;;;5.43;3.45;;;;;;;6.16;100.00;98744.78;4421580;32;20165;-70
2022/01/05 04:36:37;;;;;;;3.58;2.95;;;;;;;6.01;100.00;98745.09;4407107;32;20152;-71
2022/01/05 04:39:05;;;;;;;3.28;2.40;;;;;;;6.14;100.00;98746.53;4421375;32;20420;-71
2022/01/05 04:41:32;;;;;;;5.10;2.65;;;;;;;6.07;100.00;98744.09;4431542;32;20105;-70
2022/01/05 04:43:59;;;;;;;3.85;2.72;;;;;;;6.03;100.00;98748.53;4437814;32;20126;-70
2022/01/05 04:46:26;;;;;;;3.60;3.00;;;;;;;6.06;100.00;98743.22;4437717;31;20515;-71
2022/01/05 04:48:54;;;;;;;6.00;3.67;;;;;;;6.02;100.00;98741.56;4437669;32;20161;-70
2022/01/05 04:51:21;;;;;;;7.57;2.92;;;;;;;5.95;100.00;98735.59;4437585;32;20746;-70
2022/01/05 04:53:48;;;;;;;4.60;3.05;;;;;;;5.95;100.00;98734.75;4437479;31;20081;-70
2022/01/05 04:56:15;;;;;;;3.20;2.62;;;;;;;5.99;100.00;98731.19;4437293;32;20085;-70
2022/01/05 04:58:42;;;;;;;3.50;2.62;;;;;;;5.90;100.00;98720.84;4434798;31;20228;-71
2022/01/05 05:01:09;;;;;;;3.58;3.08;;;;;;;5.92;100.00;98724.31;4436573;31;20089;-70
2022/01/05 05:03:37;;;;;;;4.15;2.95;;;;;;;5.99;100.00;98731.19;4435636;31;20156;-71
2022/01/05 05:06:05;;;;;;;3.72;3.12;;;;;;;5.87;100.00;98732.25;4436314;32;20147;-71
2022/01/05 05:08:32;;;;;;;5.32;3.70;;;;;;;6.02;100.00;98728.50;4436414;32;20463;-71
2022/01/05 05:10:59;;;;;;;4.30;3.17;;;;;;;5.97;100.00;98730.34;4436154;32;20097;-70
2022/01/05 05:13:26;;;;;;;12.48;3.60;;;;;;;5.87;100.00;98736.63;4436412;32;20154;-71
2022/01/05 05:15:54;;;;;;;5.25;2.90;;;;;;;5.83;100.00;98735.81;4436150;32;20108;-70
2022/01/05 05:18:21;;;;;;;4.75;3.80;;;;;;;5.93;100.00;98734.75;4436548;32;20870;-71
2022/01/05 05:20:48;;;;;;;6.87;3.65;;;;;;;5.94;100.00;98727.81;4436260;32;20522;-71
2022/01/05 05:23:16;;;;;;;8.18;4.00;;;;;;;5.90;100.00;98739.16;4436427;32;20077;-71
2022/01/05 05:25:44;;;;;;;8.20;4.43;;;;;;;5.79;100.00;98733.28;4436458;32;20081;-71
2022/01/05 05:28:11;;;;;;;6.30;4.25;;;;;;;6.20;100.00;98740.34;4436352;32;20531;-70
2022/01/05 05:30:38;;;;;;;6.30;4.12;;;;;;;6.09;100.00;98729.25;4436268;32;20470;-71
2022/01/05 05:33:06;;;;;;;7.60;4.70;;;;;;;5.95;100.00;98734.75;4436299;31;20161;-70
2022/01/05 05:35:33;;;;;;;8.20;4.40;;;;;;;5.99;100.00;98734.66;4436203;32;20161;-70
2022/01/05 05:38:01;;;;;;;6.80;4.85;;;;;;;6.06;100.00;98745.00;4436193;32;20139;-71
2022/01/05 05:40:28;;;;;;;6.62;4.12;;;;;;;5.90;100.00;98747.00;4436147;32;20617;-71
2022/01/05 05:42:55;;;;;;;7.62;4.62;;;;;;;5.86;100.00;98750.56;4436595;32;20093;-71
2022/01/05 05:45:22;;;;;;;6.45;3.95;;;;;;;5.85;100.00;98748.84;4436089;32;20452;-71
2022/01/05 05:47:50;;;;;;;6.25;3.87;;;;;;;5.86;100.00;98753.19;4436086;32;20388;-70
2022/01/05 05:50:17;;;;;;;5.85;4.00;;;;;;;5.82;100.00;98756.75;4428164;32;20113;-70
2022/01/05 05:52:44;;;;;;;6.32;3.83;;;;;;;5.82;100.00;98762.84;4420760;32;20081;-71
2022/01/05 05:55:11;;;;;;;7.93;4.05;;;;;;;5.99;100.00;98762.53;4420587;32;20117;-70
2022/01/05 05:57:42;;;;;;;6.82;3.87;;;;;;;6.08;100.00;98766.72;4420518;32;20188;-71
2022/01/05 06:00:10;;;;;;;8.98;4.20;;;;;;;5.94;100.00;98762.66;4420488;32;20555;-71
2022/01/05 06:02:38;;;;;;;7.28;4.85;;;;;;;5.89;100.00;98761.81;4420250;32;20102;-71
2022/01/05 06:05:06;;;;;;;6.87;4.15;;;;;;;5.78;100.00;98755.09;4427373;32;20154;-71
2022/01/05 06:07:33;;;;;;;7.40;4.72;;;;;;;5.75;100.00;98769.91;4426273;32;20096;-71
2022/01/05 06:10:00;;;;;;;5.68;4.07;;;;;;;5.72;100.00;98766.50;4427921;32;20169;-70
2022/01/05 06:12:27;;;;;;;8.18;4.07;;;;;;;5.63;100.00;98764.06;4434633;32;20448;-70
2022/01/05 06:14:55;;;;;;;8.82;5.80;;;;;;;5.55;100.00;98764.22;4424112;32;20153;-70
2022/01/05 06:17:22;;;;;;;11.68;6.07;;;;;;;5.51;100.00;98772.97;4424428;32;20147;-70
2022/01/05 06:19:49;;;;;;;17.33;9.70;;;;;;;5.54;100.00;98775.53;4431047;32;20510;-70
2022/01/05 06:22:17;;;;;;;29.52;13.30;;;;;;;5.50;100.00;98773.87;4432762;31;20437;-70
2022/01/05 06:24:49;;;;;;;23.52;12.23;;;;;;;5.32;100.00;98777.66;4426953;32;20070;-70
2022/01/05 06:27:16;;;;;;;20.90;11.02;;;;;;;5.30;100.00;98775.94;4420313;31;20607;-70
2022/01/05 06:29:43;;;;;;;22.37;10.82;;;;;;;5.30;100.00;98781.16;4420093;32;20097;-70
2022/01/05 06:32:11;;;;;;;20.85;10.00;;;;;;;5.48;100.00;98771.28;4420232;32;20108;-70
2022/01/05 06:34:38;;;;;;;18.12;9.27;;;;;;;5.40;100.00;98777.50;4426183;32;20120;-70
2022/01/05 06:37:06;;;;;;;18.95;9.15;;;;;;;5.53;100.00;98784.25;4427617;32;20104;-70
2022/01/05 06:39:33;;;;;;;21.27;8.80;;;;;;;5.49;100.00;98782.59;4429805;32;20556;-70
2022/01/05 06:42:01;;;;;;;59.63;21.12;;;;;;;5.45;100.00;98776.56;4430764;32;20611;-70
2022/01/05 06:44:28;;;;;;;49.78;19.20;;;;;;;5.49;100.00;98775.63;4435177;32;20097;-70
2022/01/05 06:47:01;;;;;;;46.25;18.98;;;;;;;5.46;100.00;98780.03;4423876;32;20097;-70
2022/01/05 06:49:28;;;;;;;101.25;40.15;;;;;;;5.46;100.00;98773.06;4430829;32;20805;-70
2022/01/05 06:51:55;;;;;;;89.10;34.78;;;;;;;5.39;100.00;98774.03;4420528;32;20077;-70
2022/01/05 06:54:23;;;;;;;62.28;26.87;;;;;;;5.40;100.00;98780.13;4428817;32;20123;-71
2022/01/05 06:56:50;;;;;;;60.12;25.62;;;;;;;5.48;100.00;98780.87;4434056;32;20093;-71
2022/01/05 06:59:17;;;;;;;59.38;26.75;;;;;;;5.50;100.00;98782.56;4421101;32;20131;-71
2022/01/05 07:01:44;;;;;;;94.95;39.05;;;;;;;5.51;100.00;98791.25;4420737;32;20135;-71
2022/01/05 07:04:11;;;;;;;82.43;32.90;;;;;;;5.53;100.00;98788.63;4420571;32;20173;-70
2022/01/05 07:06:39;;;;;;;87.43;34.90;;;;;;;5.51;100.00;98778.19;4420344;32;20124;-71
2022/01/05 07:09:06;;;;;;;94.80;37.58;;;;;;;5.56;100.00;98783.34;4420746;32;20123;-71
2022/01/05 07:11:35;;;;;;;85.15;35.08;;;;;;;5.57;100.00;98782.47;4420745;32;20161;-71
2022/01/05 07:14:02;;;;;;;83.57;34.75;;;;;;;5.56;100.00;98783.34;4420566;32;20605;-71
2022/01/05 07:16:30;;;;;;;67.65;28.75;;;;;;;5.59;100.00;98789.37;4420418;32;20081;-72
2022/01/05 07:18:57;;;;;;;68.00;30.42;;;;;;;5.64;100.00;98790.16;4420766;32;20131;-72
2022/01/05 07:21:24;;;;;;;63.45;27.98;;;;;;;5.63;100.00;98795.44;4426573;32;20085;-72
2022/01/05 07:23:51;;;;;;;59.90;27.15;;;;;;;5.72;100.00;98782.19;4435534;32;20153;-73
2022/01/05 07:26:18;;;;;;;56.17;24.12;;;;;;;5.84;100.00;98788.97;4435862;32;20105;-72
2022/01/05 07:28:46;;;;;;;53.58;23.25;;;;;;;5.91;100.00;98790.56;4438121;32;20550;-71
2022/01/05 07:31:13;;;;;;;41.10;17.85;;;;;;;6.06;100.00;98790.28;4438426;31;20085;-71
2022/01/05 07:33:41;;;;;;;33.10;13.27;;;;;;;6.17;100.00;98792.69;4438324;32;20089;-71
2022/01/05 07:36:08;;;;;;;28.00;11.77;;;;;;;6.16;100.00;98791.84;4437889;31;20128;-72
2022/01/05 07:38:35;;;;;;;11.45;6.40;;;;;;;6.61;100.00;98790.94;4438188;32;20148;-73
2022/01/05 07:41:02;;;;;;;13.77;6.40;;;;;;;6.55;100.00;98789.31;4438392;31;20081;-71
2022/01/05 07:43:30;;;;;;;7.97;5.05;;;;;;;6.64;100.00;98791.75;4437974;32;20090;-70
2022/01/05 07:45:57;;;;;;;7.50;3.62;;;;;;;6.80;100.00;98788.78;4431942;32;20097;-71
2022/01/05 07:48:24;;;;;;;7.82;4.53;;;;;;;7.12;100.00;98790.66;4437126;32;20775;-71
2022/01/05 07:50:51;;;;;;;14.20;5.20;;;;;;;7.29;100.00;98792.88;4437690;32;20084;-72
2022/01/05 07:53:19;;;;;;;9.98;5.18;;;;;;;7.34;100.00;98796.25;4433875;32;20097;-69
2022/01/05 07:55:47;;;;;;;12.93;6.00;;;;;;;7.37;100.00;98788.31;4422687;32;20422;-70
2022/01/05 07:58:14;;;;;;;10.13;5.50;;;;;;;7.50;100.00;98792.38;4422525;32;20120;-71
2022/01/05 08:00:42;;;;;;;11.73;6.62;;;;;;;7.62;100.00;98792.03;4422529;32;20158;-71
2022/01/05 08:03:10;;;;;;;10.23;5.62;;;;;;;7.74;99.96;98792.62;4422468;32;20082;-71
2022/01/05 08:05:37;;;;;;;13.35;6.20;;;;;;;7.81;99.96;98800.31;4422494;32;20097;-70
2022/01/05 08:08:04;;;;;;;13.85;6.10;;;;;;;7.87;98.54;98802.75;4423578;32;20117;-71
2022/01/05 08:10:31;;;;;;;8.48;4.60;;;;;;;8.14;96.80;98795.91;4438015;32;20077;-72
2022/01/05 08:12:59;;;;;;;9.65;4.85;;;;;;;8.24;97.12;98795.66;4437757;32;20098;-72
2022/01/05 08:15:26;;;;;;;10.75;3.12;;;;;;;8.56;95.78;98793.00;4438011;32;20122;-72
2022/01/05 08:17:53;;;;;;;4.12;2.83;;;;;;;8.82;94.24;98799.25;4433974;32;20085;-72
2022/01/05 08:20:20;;;;;;;4.05;3.33;;;;;;;8.63;95.15;98811.22;4422345;32;20223;-72
2022/01/05 08:22:47;;;;;;;5.72;3.33;;;;;;;8.69;94.89;98805.78;4422483;32;20723;-72
2022/01/05 08:25:17;;;;;;;4.93;3.72;;;;;;;8.68;94.90;98811.94;4422033;32;20482;-73
2022/01/05 08:27:47;;;;;;;7.95;4.28;;;;;;;8.85;94.09;98813.16;4436969;32;20130;-72
2022/01/05 08:30:25;;;;;;;6.87;4.50;;;;;;;8.89;93.49;98807.81;4431714;32;20082;-73
2022/01/05 08:32:53;;;;;;;6.70;4.50;;;;;;;8.77;94.08;98812.53;4434716;32;20748;-72
2022/01/05 08:35:23;;;;;;;6.50;4.30;;;;;;;8.85;93.84;98814.91;4437651;31;20086;-74
2022/01/05 08:37:51;;;;;;;6.05;3.80;;;;;;;9.02;93.18;98817.91;4437752;32;20120;-72
2022/01/05 08:40:20;;;;;;;7.50;4.60;;;;;;;9.27;92.08;98823.25;4437644;32;20086;-71
2022/01/05 08:42:48;;;;;;;6.82;4.40;;;;;;;9.29;91.87;98815.31;4434031;32;20124;-72
2022/01/05 08:45:17;;;;;;;8.23;4.90;;;;;;;9.17;92.30;98819.19;4437657;32;20119;-72
2022/01/05 08:47:47;;;;;;;9.85;4.80;;;;;;;9.06;93.26;98816.91;4437426;32;20097;-71
2022/01/05 08:50:17;;;;;;;8.85;4.72;;;;;;;9.21;92.51;98806.81;4437386;32;20498;-72
2022/01/05 08:52:45;;;;;;;11.63;4.60;;;;;;;9.45;91.43;98802.53;4437497;32;20094;-72
2022/01/05 08:55:14;;;;;;;7.80;4.07;;;;;;;9.58;91.06;98822.28;4437438;31;20113;-72
2022/01/05 08:57:42;;;;;;;7.37;3.97;;;;;;;9.53;91.57;98825.03;4437312;32;20092;-73
2022/01/05 09:00:11;;;;;;;10.82;4.93;;;;;;;9.61;91.10;98816.91;4430604;32;20112;-71
2022/01/05 09:02:38;;;;;;;9.13;4.65;;;;;;;9.67;90.90;98821.09;4437346;32;20098;-72
2022/01/05 09:05:07;;;;;;;10.63;5.22;;;;;;;9.72;90.35;98829.72;4436979;32;20142;-72
2022/01/05 09:07:35;;;;;;;8.18;5.40;;;;;;;9.64;91.21;98831.72;4436649;32;20443;-73
2022/01/05 09:10:06;;;;;;;10.25;5.57;;;;;;;9.53;91.21;98838.19;4436677;31;20149;-72
2022/01/05 09:12:33;;;;;;;11.02;5.45;;;;;;;9.60;91.04;98838.00;4437098;32;20081;-74
2022/01/05 09:15:02;;;;;;;11.43;4.72;;;;;;;9.71;90.44;98836.72;4431111;32;20486;-72
2022/01/05 09:17:29;;;;;;;7.45;4.18;;;;;;;9.66;90.79;98830.75;4429084;32;20850;-72
2022/01/05 09:19:57;;;;;;;7.50;3.83;;;;;;;9.62;91.37;98839.66;4427281;32;20397;-72
2022/01/05 09:22:24;;;;;;;6.32;4.28;;;;;;;9.71;90.67;98843.75;4435673;32;20093;-72
2022/01/05 09:24:52;;;;;;;6.45;3.50;;;;;;;9.69;90.76;98849.06;4437305;32;20097;-72
2022/01/05 09:27:20;;;;;;;12.68;4.32;;;;;;;9.62;91.21;98841.44;4437220;32;20121;-73
2022/01/05 09:29:47;;;;;;;5.35;3.92;;;;;;;9.70;91.00;98835.00;4437239;32;20073;-73
2022/01/05 09:32:15;;;;;;;9.65;4.18;;;;;;;9.72;90.69;98833.19;4437146;32;20756;-72
2022/01/05 09:34:43;;;;;;;9.65;3.67;;;;;;;9.85;90.41;98843.28;4436994;32;20161;-72
2022/01/05 09:37:21;;;;;;;5.60;3.50;;;;;;;9.74;91.20;98855.03;4436931;31;20101;-72
2022/01/05 09:42:36;;;;;;;11.18;4.32;;;;;;;9.62;92.14;98850.19;4436912;32;20089;-72
2022/01/05 09:45:27;;;;;;;6.75;4.28;;;;;;;9.60;92.37;98857.25;4436962;32;20116;-71
2022/01/05 09:48:25;;;;;;;9.30;4.57;;;;;;;9.55;92.98;98861.81;4436234;32;20752;-72
2022/01/05 09:51:02;;;;;;;9.52;4.93;;;;;;;9.55;93.26;98854.78;4425552;32;20116;-72
2022/01/05 09:53:30;;;;;;;11.02;3.92;;;;;;;9.64;92.71;98861.50;4436300;32;20154;-72
2022/01/05 09:56:18;;;;;;;14.65;4.53;;;;;;;9.75;90.71;98859.41;4436677;32;20172;-71
2022/01/05 09:58:45;;;;;;;6.18;3.92;;;;;;;9.61;90.88;98847.59;4435480;32;20105;-71
2022/01/05 10:01:12;;;;;;;8.10;3.35;;;;;;;9.61;89.90;98845.84;4428012;31;20085;-71
2022/01/05 10:03:40;;;;;;;6.07;3.45;;;;;;;9.51;90.27;98847.06;4425516;32;20223;-71
2022/01/05 10:06:12;;;;;;;6.35;3.08;;;;;;;9.36;90.25;98853.62;4420852;32;20158;-71
2022/01/05 10:08:40;;;;;;;7.80;4.62;;;;;;;9.34;89.94;98851.06;4427479;32;20192;-72
2022/01/05 10:11:10;;;;;;;7.97;4.75;;;;;;;9.50;89.62;98853.19;4430292;32;20088;-72
2022/01/05 10:13:37;;;;;;;8.88;5.87;;;;;;;9.42;89.92;98860.47;4429286;32;20104;-73
2022/01/05 10:16:05;;;;;;;6.47;4.05;;;;;;;9.34;90.90;98863.34;4425148;31;20493;-71
2022/01/05 10:18:43;;;;;;;9.63;5.22;;;;;;;9.35;89.93;98870.31;4420130;32;20119;-71
2022/01/05 10:21:14;;;;;;;6.53;3.72;;;;;;;9.23;91.09;98862.84;4418415;32;20101;-71
2022/01/05 10:23:45;;;;;;;5.25;3.50;;;;;;;9.35;90.06;98862.44;4420481;32;20112;-71
2022/01/05 10:26:28;;;;;;;5.90;3.65;;;;;;;9.27;90.54;98861.81;4432027;32;20127;-72
2022/01/05 10:29:16;;;;;;;6.78;3.35;;;;;;;9.20;91.14;98865.53;4436542;32;20089;-73
2022/01/05 10:31:50;;;;;;;5.70;3.75;;;;;;;9.07;92.00;98863.28;4436399;32;20110;-72
2022/01/05 10:34:24;;;;;;;5.75;3.30;;;;;;;9.14;91.43;98870.97;4436296;32;20123;-72
2022/01/05 10:36:57;;;;;;;3.42;2.50;;;;;;;9.15;91.46;98877.94;4435400;32;20171;-72
2022/01/05 10:39:28;;;;;;;5.55;3.85;;;;;;;9.09;91.61;98879.87;4435705;32;20100;-72
2022/01/05 10:41:56;;;;;;;4.45;3.12;;;;;;;9.24;90.89;98877.69;4436014;32;20476;-72
2022/01/05 10:44:24;;;;;;;5.80;2.95;;;;;;;9.10;91.63;98872.84;4430529;32;20158;-72
2022/01/05 10:46:54;;;;;;;3.58;3.17;;;;;;;9.18;91.09;98878.72;4421055;32;20094;-72
2022/01/05 10:49:29;;;;;;;3.62;2.70;;;;;;;9.14;91.34;98881.50;4420477;32;20119;-72
2022/01/05 10:52:00;;;;;;;4.15;2.78;;;;;;;8.92;91.75;98887.38;4420128;32;20226;-72
2022/01/05 10:54:30;;;;;;;4.62;3.17;;;;;;;8.95;91.06;98900.44;4419963;32;20101;-72
2022/01/05 10:57:09;;;;;;;3.92;2.80;;;;;;;8.91;92.84;98904.06;4419880;32;20515;-72
2022/01/05 10:59:39;;;;;;;2.37;2.17;;;;;;;8.80;93.21;98914.00;4420701;32;20539;-72
2022/01/05 11:02:30;;;;;;;3.08;2.60;;;;;;;8.80;93.29;98907.00;4433389;32;20463;-72
2022/01/05 11:05:06;;;;;;;4.30;2.92;;;;;;;8.91;92.64;98911.94;4433258;32;20114;-71
2022/01/05 11:07:37;;;;;;;2.90;2.00;;;;;;;8.77;94.31;98916.72;4421404;32;20400;-72
2022/01/05 11:10:09;;;;;;;2.40;1.05;;;;;;;8.69;94.45;98918.69;4423533;32;21065;-73
2022/01/05 11:12:38;;;;;;;1.48;1.37;;;;;;;8.36;95.98;98921.28;4429976;32;20120;-72
2022/01/05 11:15:32;;;;;;;1.85;1.58;;;;;;;8.22;98.18;98939.16;4428226;32;20544;-72
2022/01/05 11:18:05;;;;;;;0.85;0.85;;;;;;;8.05;99.36;98927.31;4419283;32;20109;-73
2022/01/05 11:20:33;;;;;;;2.62;1.37;;;;;;;8.02;98.07;98937.00;4432405;32;20172;-72
2022/01/05 11:23:00;;;;;;;2.53;1.58;;;;;;;7.90;99.02;98935.56;4425782;32;20085;-71
2022/01/05 11:25:28;;;;;;;1.42;1.33;;;;;;;7.96;99.19;98937.19;4430222;32;20157;-72
2022/01/05 11:27:56;;;;;;;2.60;1.20;;;;;;;7.85;98.78;98926.97;4429090;32;20097;-72
2022/01/05 11:30:23;;;;;;;1.87;1.45;;;;;;;7.93;97.72;98938.12;4427405;32;20106;-71
2022/01/05 11:32:51;;;;;;;1.58;1.25;;;;;;;7.85;97.19;98940.06;4426518;32;20093;-72
2022/01/05 11:35:18;;;;;;;1.95;1.40;;;;;;;7.83;97.65;98950.59;4420129;32;20132;-72
2022/01/05 11:37:46;;;;;;;3.75;1.58;;;;;;;7.87;96.57;98964.47;4420155;32;20106;-71
2022/01/05 11:40:14;;;;;;;2.08;1.50;;;;;;;7.82;96.16;98972.47;4424180;32;20109;-72
2022/01/05 11:42:45;;;;;;;2.05;1.10;;;;;;;7.82;96.13;98975.09;4428207;32;20120;-70
2022/01/05 11:45:32;;;;;;;3.47;1.60;;;;;;;7.72;97.24;98981.44;4426734;32;20137;-73